Time;durP1;ratioP1;P1;durP2;ratioP2;P2;SDS_P1;SDS_P2;PMS_P1;PMS_P2;Temp;Humidity;BMP_temperature;BMP_pressure;BME280_temperature;BME280_humidity;BME280_pressure;Samples;Min_cycle;Max_cycle;Signal;HPM_P1;HPM_P2
2023/05/28 00:01:01;;;;;;;;;5.50;5.00;;;;;8.86;84.52;98943.63;4820685;28;104042;-74
2023/05/28 00:03:35;;;;;;;;;5.50;5.00;;;;;8.86;84.43;98948.19;4820978;28;102218;-73
2023/05/28 00:06:23;;;;;;;;;9.00;8.00;;;;;8.85;84.44;98943.81;4819172;29;102361;-73
2023/05/28 00:09:14;;;;;;;;;10.00;10.00;;;;;8.78;84.51;98943.66;4824349;28;102262;-72
2023/05/28 00:11:57;;;;;;;;;13.75;11.75;;;;;8.75;83.32;98944.03;4819706;28;108343;-73
2023/05/28 00:14:46;;;;;;;;;11.00;9.00;;;;;8.76;83.23;98934.94;4823214;29;102094;-73
2023/05/28 00:17:22;;;;;;;;;12.50;10.00;;;;;8.73;83.48;98935.31;4821047;28;102158;-73
2023/05/28 00:19:49;;;;;;;;;9.00;8.50;;;;;8.73;83.02;98934.47;4822055;28;106222;-71
2023/05/28 00:22:17;;;;;;;;;12.25;10.25;;;;;8.70;83.04;98930.25;4825434;28;109019;-73
2023/05/28 00:24:44;;;;;;;;;10.25;9.00;;;;;8.67;82.54;98922.56;4820567;29;101978;-73
2023/05/28 00:27:11;;;;;;;;;9.00;8.00;;;;;8.62;83.71;98921.41;4822498;28;101864;-73
2023/05/28 00:29:38;;;;;;;;;9.25;7.25;;;;;8.57;83.32;98927.34;4824279;28;102018;-73
2023/05/28 00:32:05;;;;;;;;;11.25;9.00;;;;;8.50;83.58;98918.31;4821630;28;104064;-73
2023/05/28 00:34:32;;;;;;;;;16.25;10.75;;;;;8.43;83.83;98917.34;4820027;28;102440;-73
2023/05/28 00:36:59;;;;;;;;;12.25;11.00;;;;;8.43;83.61;98917.34;4822540;28;102053;-73
2023/05/28 00:39:26;;;;;;;;;11.25;8.75;;;;;8.45;84.39;98909.94;4823794;28;102268;-73
2023/05/28 00:42:01;;;;;;;;;9.00;6.00;;;;;8.48;82.25;98914.94;4823116;28;104067;-73
2023/05/28 00:44:32;;;;;;;;;8.25;5.00;;;;;8.51;83.17;98910.03;4821910;28;103111;-73
2023/05/28 00:47:00;;;;;;;;;8.25;7.50;;;;;8.47;81.15;98918.66;4821055;28;101946;-73
2023/05/28 00:49:28;;;;;;;;;10.50;9.25;;;;;8.36;81.57;98890.28;4820399;28;101880;-73
2023/05/28 00:51:56;;;;;;;;;4.00;4.00;;;;;8.48;83.51;98904.16;4820285;28;104092;-72
2023/05/28 00:54:24;;;;;;;;;7.00;5.75;;;;;8.36;83.32;98902.91;4824907;29;102771;-73
2023/05/28 00:56:53;;;;;;;;;8.75;7.75;;;;;8.35;84.13;98903.94;4818039;28;102605;-72
2023/05/28 00:59:24;;;;;;;;;8.00;4.00;;;;;8.34;82.79;98902.25;4824711;28;102686;-74
2023/05/28 01:01:51;;;;;;;;;6.50;5.50;;;;;8.34;81.23;98897.69;4816882;29;108745;-71
2023/05/28 01:04:24;;;;;;;;;4.25;4.00;;;;;8.38;83.61;98898.19;4821854;28;101948;-73
2023/05/28 01:07:10;;;;;;;;;5.00;4.00;;;;;8.32;83.60;98894.38;4818567;28;102050;-73
2023/05/28 01:09:59;;;;;;;;;4.00;3.75;;;;;8.31;82.16;98892.69;4821413;28;102678;-73
2023/05/28 01:12:56;;;;;;;;;4.00;3.25;;;;;8.31;83.82;98884.59;4820999;28;108570;-73
2023/05/28 01:15:42;;;;;;;;;5.50;5.00;;;;;8.28;82.80;98886.78;4818908;28;102238;-73
2023/05/28 01:18:16;;;;;;;;;3.50;3.25;;;;;8.25;82.23;98884.44;4819420;28;102461;-73
2023/05/28 01:20:43;;;;;;;;;3.25;3.00;;;;;8.21;82.63;98880.44;4824491;28;102341;-73
2023/05/28 01:23:16;;;;;;;;;7.25;3.50;;;;;8.23;80.52;98890.03;4818213;28;104010;-73
2023/05/28 01:25:47;;;;;;;;;6.00;6.00;;;;;8.10;82.33;98888.94;4833635;28;102000;-73
2023/05/28 01:28:14;;;;;;;;;5.75;5.00;;;;;8.03;82.00;98886.09;4821595;28;102166;-73
2023/05/28 01:30:43;;;;;;;;;7.25;6.00;;;;;8.02;83.02;98881.72;4822567;28;107974;-73
2023/05/28 01:33:11;;;;;;;;;8.75;8.75;;;;;8.02;81.19;98882.56;4822712;28;104165;-73
2023/05/28 01:35:39;;;;;;;;;10.00;8.75;;;;;7.92;80.79;98875.75;4824240;28;101932;-73
2023/05/28 01:38:09;;;;;;;;;6.25;6.25;;;;;7.89;81.60;98881.47;4816633;28;104769;-73
2023/05/28 01:40:43;;;;;;;;;8.75;8.00;;;;;7.91;81.55;98884.84;4820925;28;102034;-73
2023/05/28 01:43:10;;;;;;;;;9.25;8.75;;;;;7.88;81.86;98880.63;4823882;28;104031;-73
2023/05/28 01:45:39;;;;;;;;;8.25;7.75;;;;;7.91;81.37;98888.38;4821226;28;102404;-73
2023/05/28 01:48:07;;;;;;;;;6.75;4.50;;;;;7.88;82.46;98867.16;4822596;28;102281;-73
2023/05/28 01:50:34;;;;;;;;;6.25;6.25;;;;;7.96;81.21;98879.75;4822422;28;102371;-74
2023/05/28 01:53:01;;;;;;;;;4.75;4.00;;;;;7.99;80.79;98882.09;4817766;29;104126;-73
2023/05/28 01:55:28;;;;;;;;;4.00;3.00;;;;;8.00;79.89;98873.84;4821334;28;102072;-73
2023/05/28 01:57:55;;;;;;;;;6.00;6.00;;;;;7.98;78.97;98875.88;4827550;28;102033;-73
2023/05/28 02:00:23;;;;;;;;;3.00;1.25;;;;;7.99;80.18;98882.09;4824817;28;102082;-74
2023/05/28 02:02:50;;;;;;;;;2.25;2.25;;;;;7.96;81.16;98883.28;4819632;29;104037;-73
2023/05/28 02:05:17;;;;;;;;;2.00;1.00;;;;;7.95;81.87;98878.09;4822149;28;102247;-73
2023/05/28 02:07:45;;;;;;;;;3.00;3.00;;;;;7.96;80.44;98883.28;4823398;29;102094;-73
2023/05/28 02:10:12;;;;;;;;;3.00;2.00;;;;;7.91;81.21;98883.00;4822340;29;102435;-74
2023/05/28 02:12:40;;;;;;;;;2.50;2.25;;;;;7.86;81.43;98879.97;4819675;28;104232;-73
2023/05/28 02:15:07;;;;;;;;;4.25;3.00;;;;;7.79;82.15;98865.53;4821964;28;102095;-73
2023/05/28 02:17:35;;;;;;;;;2.00;2.00;;;;;7.76;82.69;98876.66;4822049;29;102714;-73
2023/05/28 02:20:02;;;;;;;;;2.75;2.75;;;;;7.74;82.56;98884.09;4819115;28;102309;-74
2023/05/28 02:22:29;;;;;;;;;3.75;3.00;;;;;7.70;82.96;98881.94;4820226;28;104126;-74
2023/05/28 02:24:56;;;;;;;;;2.25;1.75;;;;;7.66;83.94;98876.03;4819625;29;102044;-73
2023/05/28 02:27:23;;;;;;;;;1.75;1.75;;;;;7.54;84.76;98877.44;4822581;28;101991;-73
2023/05/28 02:29:50;;;;;;;;;2.25;2.25;;;;;7.50;83.71;98870.75;4824872;29;102099;-74
2023/05/28 02:32:18;;;;;;;;;2.00;1.00;;;;;7.40;85.46;98881.72;4821988;29;104020;-73
2023/05/28 02:34:46;;;;;;;;;4.75;3.00;;;;;7.27;85.11;98870.66;4821206;28;101975;-73
2023/05/28 02:37:13;;;;;;;;;2.00;2.00;;;;;7.30;85.39;98869.47;4822971;29;102309;-73
2023/05/28 02:39:41;;;;;;;;;2.50;2.50;;;;;7.29;84.28;98862.44;4826242;28;102134;-73
2023/05/28 02:42:08;;;;;;;;;2.00;1.25;;;;;7.28;83.92;98864.28;4824629;28;104059;-73
2023/05/28 02:44:35;;;;;;;;;2.75;2.00;;;;;7.25;84.79;98866.50;4825203;28;102502;-73
2023/05/28 02:47:02;;;;;;;;;4.00;4.00;;;;;7.18;85.57;98864.47;4825838;28;101965;-74
2023/05/28 02:49:29;;;;;;;;;4.00;3.00;;;;;7.20;86.10;98868.84;4821506;29;103020;-73
2023/05/28 02:51:56;;;;;;;;;2.00;2.00;;;;;7.23;85.61;98860.44;4826477;28;103356;-73
2023/05/28 02:54:23;;;;;;;;;2.75;2.00;;;;;7.25;83.24;98861.09;4824530;28;101933;-73
2023/05/28 02:56:49;;;;;;;;;1.00;1.00;;;;;7.30;84.02;98869.47;4826734;28;101888;-73
2023/05/28 02:59:16;;;;;;;;;0.00;0.00;;;;;7.26;83.62;98863.59;4830837;28;102581;-74
2023/05/28 03:01:44;;;;;;;;;2.00;1.75;;;;;7.32;83.10;98871.00;4824989;28;104119;-73
2023/05/28 03:04:11;;;;;;;;;0.25;0.25;;;;;7.34;83.79;98871.63;4823935;29;102281;-73
2023/05/28 03:06:38;;;;;;;;;1.00;1.00;;;;;7.37;84.37;98865.09;4824033;28;102304;-74
2023/05/28 03:09:05;;;;;;;;;1.25;1.25;;;;;7.35;82.38;98872.47;4825434;28;102262;-73
2023/05/28 03:11:32;;;;;;;;;4.00;4.00;;;;;7.37;80.78;98870.47;4822725;29;104050;-74
2023/05/28 03:13:59;;;;;;;;;1.75;1.50;;;;;7.41;83.06;98874.47;4824749;28;101920;-73
2023/05/28 03:16:26;;;;;;;;;1.75;1.25;;;;;7.44;83.20;98869.59;4825398;29;101977;-73
2023/05/28 03:18:53;;;;;;;;;1.25;1.00;;;;;7.38;83.65;98861.41;4828040;28;102417;-73
2023/05/28 03:21:20;;;;;;;;;1.00;1.00;;;;;7.46;82.87;98861.34;4820291;28;104132;-73
2023/05/28 03:23:47;;;;;;;;;2.00;2.00;;;;;7.33;81.30;98836.88;4824720;28;102526;-73
2023/05/28 03:26:14;;;;;;;;;4.00;3.00;;;;;7.44;82.38;98853.44;4824797;28;102270;-73
2023/05/28 03:28:41;;;;;;;;;3.75;2.25;;;;;7.49;82.53;98858.31;4824951;28;102400;-73
2023/05/28 03:31:08;;;;;;;;;5.25;3.25;;;;;7.53;80.66;98848.84;4822174;28;104039;-73
2023/05/28 03:33:35;;;;;;;;;4.25;4.00;;;;;7.61;80.45;98849.66;4822660;28;102351;-73
2023/05/28 03:36:02;;;;;;;;;3.50;3.00;;;;;7.60;79.80;98848.00;4821795;29;101976;-72
2023/05/28 03:38:29;;;;;;;;;2.25;2.25;;;;;7.66;79.71;98850.97;4824911;28;102419;-74
2023/05/28 03:40:56;;;;;;;;;6.50;4.00;;;;;7.69;79.42;98853.34;4823292;29;103950;-72
2023/05/28 03:43:23;;;;;;;;;5.00;3.00;;;;;7.77;79.78;98850.59;4824557;28;102171;-72
2023/05/28 03:45:50;;;;;;;;;2.00;2.00;;;;;7.82;80.34;98854.44;4822672;29;102929;-72
2023/05/28 03:48:17;;;;;;;;;2.50;2.50;;;;;7.81;79.83;98847.38;4821920;28;102157;-71
2023/05/28 03:50:44;;;;;;;;;4.00;3.00;;;;;7.91;79.09;98853.38;4819491;28;103950;-72
2023/05/28 03:53:11;;;;;;;;;3.00;2.25;;;;;7.96;78.35;98848.28;4825017;28;102257;-72
2023/05/28 03:55:38;;;;;;;;;4.25;3.00;;;;;8.04;77.72;98848.22;4822078;28;101871;-71
2023/05/28 03:58:05;;;;;;;;;5.75;3.25;;;;;8.01;78.42;98848.56;4823967;28;102261;-72
2023/05/28 04:00:32;;;;;;;;;4.00;3.25;;;;;8.11;77.96;98853.72;4820502;28;104071;-72
2023/05/28 04:02:59;;;;;;;;;3.50;3.00;;;;;8.22;78.42;98845.25;4824011;28;102309;-72
2023/05/28 04:05:26;;;;;;;;;3.25;2.75;;;;;8.30;76.93;98852.44;4823347;28;102274;-71
2023/05/28 04:07:53;;;;;;;;;3.00;3.00;;;;;8.40;78.22;98843.09;4827879;28;101993;-73
2023/05/28 04:10:20;;;;;;;;;3.00;1.00;;;;;8.53;77.90;98847.88;4822090;28;104299;-73
2023/05/28 04:12:47;;;;;;;;;4.00;3.50;;;;;8.55;76.01;98848.53;4821239;28;102301;-73
2023/05/28 04:15:15;;;;;;;;;2.75;2.75;;;;;8.67;77.03;98849.78;4827203;28;102022;-73
2023/05/28 04:17:41;;;;;;;;;3.00;2.00;;;;;8.80;76.83;98855.38;4825541;29;102514;-73
2023/05/28 04:20:09;;;;;;;;;5.25;5.00;;;;;8.84;75.32;98850.44;4822733;28;104022;-72
2023/05/28 04:22:36;;;;;;;;;2.25;2.00;;;;;8.92;74.67;98848.50;4820661;29;106882;-73
2023/05/28 04:25:03;;;;;;;;;4.25;3.00;;;;;9.01;75.24;98851.09;4822839;29;102016;-73
2023/05/28 04:27:31;;;;;;;;;6.25;4.00;;;;;9.04;74.87;98853.44;4822834;28;102534;-73
2023/05/28 04:29:58;;;;;;;;;8.00;5.00;;;;;9.19;74.43;98846.19;4822446;28;104068;-72
2023/05/28 04:32:27;;;;;;;;;3.00;3.00;;;;;9.32;75.10;98846.38;4826700;28;102165;-73
2023/05/28 04:34:54;;;;;;;;;5.25;4.25;;;;;9.81;71.86;98844.72;4823495;28;102037;-72
2023/05/28 04:37:21;;;;;;;;;9.50;6.00;;;;;10.50;69.86;98845.03;4824403;28;102358;-73
2023/05/28 04:39:48;;;;;;;;;4.00;3.00;;;;;10.81;70.06;98846.53;4825357;28;104103;-73
2023/05/28 04:42:17;;;;;;;;;1.75;0.50;;;;;10.98;67.69;98824.41;4821560;28;102269;-72
2023/05/28 04:44:45;;;;;;;;;7.25;5.75;;;;;11.18;66.64;98838.03;4820904;28;101998;-72
2023/05/28 04:47:13;;;;;;;;;5.00;4.00;;;;;11.49;67.52;98840.28;4822698;28;102847;-73
2023/05/28 04:49:43;;;;;;;;;4.00;3.75;;;;;12.04;64.66;98828.44;4821337;29;104211;-73
2023/05/28 04:52:10;;;;;;;;;4.00;3.25;;;;;12.37;64.87;98831.22;4820319;29;102495;-72
2023/05/28 04:54:37;;;;;;;;;9.50;8.50;;;;;12.67;62.30;98831.66;4822245;29;101951;-73
2023/05/28 04:57:04;;;;;;;;;6.00;5.00;;;;;12.62;60.86;98831.44;4823423;28;102222;-73
2023/05/28 04:59:31;;;;;;;;;6.25;4.25;;;;;12.82;62.85;98832.28;4821047;29;104229;-72
2023/05/28 05:01:58;;;;;;;;;5.00;5.00;;;;;12.86;60.44;98833.53;4822280;29;102828;-73
2023/05/28 05:04:25;;;;;;;;;5.00;4.50;;;;;12.74;61.03;98841.44;4824125;28;102048;-72
2023/05/28 05:06:53;;;;;;;;;3.75;3.50;;;;;12.83;60.21;98836.66;4822558;29;102063;-72
2023/05/28 05:09:20;;;;;;;;;2.00;1.75;;;;;12.97;61.61;98838.31;4823328;28;104051;-73
2023/05/28 05:11:47;;;;;;;;;8.25;6.25;;;;;13.43;59.47;98829.25;4817432;29;102177;-73
2023/05/28 05:14:14;;;;;;;;;9.25;8.00;;;;;13.18;59.69;98837.28;4812657;28;102642;-73
2023/05/28 05:16:42;;;;;;;;;5.25;4.75;;;;;13.21;59.04;98837.69;4810881;28;102930;-73
2023/05/28 05:19:09;;;;;;;;;9.75;6.25;;;;;13.68;59.80;98830.25;4818162;28;104233;-72
2023/05/28 05:21:36;;;;;;;;;8.75;8.00;;;;;14.10;60.17;98842.34;4822171;28;101994;-73
2023/05/28 05:24:03;;;;;;;;;12.25;8.75;;;;;14.36;58.12;98842.25;4818782;28;104084;-72
2023/05/28 05:26:30;;;;;;;;;10.25;7.75;;;;;14.43;58.30;98844.91;4815422;29;102469;-72
2023/05/28 05:28:57;;;;;;;;;4.50;4.00;;;;;14.30;57.46;98845.81;4820705;28;104116;-72
2023/05/28 05:31:24;;;;;;;;;4.00;4.00;;;;;14.37;59.05;98843.91;4823919;29;101960;-73
2023/05/28 05:33:51;;;;;;;;;7.25;7.00;;;;;14.68;58.71;98841.16;4823585;29;102209;-73
2023/05/28 05:36:18;;;;;;;;;3.00;2.00;;;;;14.87;54.30;98841.22;4821612;29;101991;-73
2023/05/28 05:38:45;;;;;;;;;5.00;4.00;;;;;14.88;54.30;98837.44;4823002;29;103501;-73
2023/05/28 05:41:12;;;;;;;;;5.00;3.75;;;;;15.06;55.04;98840.22;4822366;29;102018;-73
2023/05/28 05:43:39;;;;;;;;;3.00;3.00;;;;;15.46;56.53;98841.47;4822348;28;101895;-73
2023/05/28 05:46:06;;;;;;;;;4.00;4.00;;;;;15.46;54.43;98838.75;4824004;28;102271;-72
2023/05/28 05:48:33;;;;;;;;;3.50;2.75;;;;;15.92;53.40;98835.50;4820089;29;104319;-73
2023/05/28 05:51:02;;;;;;;;;3.00;3.00;;;;;15.85;57.06;98834.72;4822006;28;102058;-73
2023/05/28 05:53:29;;;;;;;;;2.00;2.00;;;;;16.12;54.21;98840.66;4822680;28;101842;-72
2023/05/28 05:55:56;;;;;;;;;1.33;1.33;;;;;16.22;53.17;98819.13;4824925;29;102014;-73
2023/05/28 05:58:26;;;;;;;;;1.33;1.33;;;;;15.94;51.62;98825.19;4822456;29;108862;-73
2023/05/28 06:00:53;;;;;;;;;2.00;2.00;;;;;16.17;51.67;98821.72;4823079;29;101919;-73
2023/05/28 06:03:20;;;;;;;;;2.00;1.00;;;;;16.21;51.20;98824.84;4821382;29;101896;-73
2023/05/28 06:05:50;;;;;;;;;4.33;4.00;;;;;16.37;52.70;98829.63;4821423;28;102033;-73
2023/05/28 06:08:17;;;;;;;;;3.00;3.00;;;;;16.90;54.18;98818.72;4823450;28;104076;-73
2023/05/28 06:10:45;;;;;;;;;2.00;2.00;;;;;17.32;51.10;98822.19;4822428;28;102901;-73
2023/05/28 06:13:12;;;;;;;;;3.00;2.67;;;;;16.87;50.27;98830.97;4820349;29;102923;-73
2023/05/28 06:15:39;;;;;;;;;2.33;1.67;;;;;16.73;50.52;98796.75;4821370;28;102806;-72
2023/05/28 06:18:08;;;;;;;;;1.67;1.67;;;;;17.16;50.28;98836.53;4803399;29;104012;-73
2023/05/28 06:20:36;;;;;;;;;2.00;2.00;;;;;17.56;47.39;98832.00;4822041;29;102254;-73
2023/05/28 06:23:03;;;;;;;;;1.67;1.67;;;;;17.55;46.51;98827.63;4820388;28;103590;-73
2023/05/28 06:25:30;;;;;;;;;2.00;2.00;;;;;17.79;47.97;98823.78;4822230;29;102705;-73
2023/05/28 06:27:57;;;;;;;;;2.00;2.00;;;;;17.07;47.26;98830.59;4824343;29;103986;-73
2023/05/28 06:30:24;;;;;;;;;2.00;2.00;;;;;17.56;46.69;98826.53;4817865;28;101972;-73
2023/05/28 06:32:51;;;;;;;;;1.33;1.33;;;;;17.65;48.52;98827.84;4819075;28;102285;-73
2023/05/28 06:35:18;;;;;;;;;2.00;2.00;;;;;17.75;47.27;98828.06;4821264;29;104497;-73
2023/05/28 06:37:45;;;;;;;;;2.33;2.00;;;;;17.60;46.58;98819.56;4819367;28;104060;-73
2023/05/28 06:40:12;;;;;;;;;3.00;2.33;;;;;17.71;49.90;98812.38;4822132;29;102123;-73
2023/05/28 06:42:39;;;;;;;;;2.33;2.00;;;;;18.13;50.76;98830.22;4822474;28;101945;-73
2023/05/28 06:45:07;;;;;;;;;2.00;2.00;;;;;18.25;43.85;98822.78;4823637;29;102162;-72
2023/05/28 06:47:34;;;;;;;;;2.00;1.33;;;;;18.06;46.00;98817.75;4819275;29;104066;-73
2023/05/28 06:50:02;;;;;;;;;1.00;1.00;;;;;18.51;45.27;98818.59;4818075;28;102313;-72
2023/05/28 06:52:29;;;;;;;;;2.00;1.00;;;;;19.15;43.51;98822.72;4821190;29;101938;-71
2023/05/28 06:54:56;;;;;;;;;1.00;1.00;;;;;18.73;43.93;98823.41;4824252;28;101981;-73
2023/05/28 06:57:23;;;;;;;;;1.00;1.00;;;;;18.38;44.25;98827.13;4820361;29;108809;-72
2023/05/28 06:59:50;;;;;;;;;1.00;1.00;;;;;18.82;45.34;98827.41;4817420;28;101960;-73
2023/05/28 07:02:17;;;;;;;;;1.00;1.00;;;;;19.13;43.17;98824.06;4812513;29;102080;-73
2023/05/28 07:04:44;;;;;;;;;1.67;0.67;;;;;18.76;42.12;98820.16;4822352;29;102117;-72
2023/05/28 07:07:11;;;;;;;;;0.33;0.33;;;;;19.33;44.01;98818.88;4815397;29;104197;-73
2023/05/28 07:09:38;;;;;;;;;1.00;0.67;;;;;19.47;43.79;98822.94;4819294;28;101937;-73
2023/05/28 07:12:05;;;;;;;;;0.67;0.67;;;;;18.20;41.73;98819.94;4820972;29;103876;-73
2023/05/28 07:14:32;;;;;;;;;1.33;1.33;;;;;18.10;43.67;98818.94;4820471;29;102299;-72
2023/05/28 07:17:00;;;;;;;;;1.00;0.67;;;;;18.22;43.48;98816.97;4820972;29;103490;-72
2023/05/28 07:19:27;;;;;;;;;1.00;1.00;;;;;18.64;45.05;98804.63;4818233;28;101831;-72
2023/05/28 07:21:54;;;;;;;;;1.00;1.00;;;;;18.95;43.38;98788.69;4820499;28;102076;-71
2023/05/28 07:24:21;;;;;;;;;1.00;1.00;;;;;19.49;43.35;98798.84;4823281;29;102078;-73
2023/05/28 07:26:48;;;;;;;;;0.00;0.00;;;;;19.52;41.14;98803.81;4819903;28;104015;-73
2023/05/28 07:29:18;;;;;;;;;0.67;0.67;;;;;19.55;39.83;98808.78;4823331;28;101992;-73
2023/05/28 07:31:45;;;;;;;;;0.67;0.67;;;;;18.86;40.99;98801.16;4820368;28;102014;-73
2023/05/28 07:34:12;;;;;;;;;1.00;0.67;;;;;19.07;41.74;98800.38;4821217;29;103439;-73
2023/05/28 07:36:39;;;;;;;;;1.67;1.67;;;;;18.95;43.38;98796.91;4817401;28;104167;-71
2023/05/28 07:39:07;;;;;;;;;1.00;1.00;;;;;18.72;45.51;98800.66;4822068;29;102276;-72
2023/05/28 07:41:34;;;;;;;;;0.67;0.67;;;;;19.08;43.74;98802.88;4817780;29;102242;-74
2023/05/28 07:44:02;;;;;;;;;1.67;0.67;;;;;19.59;41.20;98804.44;4823457;28;102327;-71
2023/05/28 07:46:29;;;;;;;;;1.00;1.00;;;;;19.02;39.47;98790.16;4823973;29;104182;-72
2023/05/28 07:48:56;;;;;;;;;0.33;0.33;;;;;19.08;39.21;98802.88;4822838;28;102003;-72
2023/05/28 07:51:26;;;;;;;;;1.00;1.00;;;;;19.00;39.46;98786.84;4819586;28;102411;-72
2023/05/28 07:53:53;;;;;;;;;1.00;1.00;;;;;19.60;39.94;98786.91;4821327;28;103139;-73
2023/05/28 07:56:23;;;;;;;;;2.00;1.00;;;;;18.75;39.68;98783.72;4824138;28;104001;-74
2023/05/28 07:58:51;;;;;;;;;3.00;2.00;;;;;18.96;40.68;98787.59;4821124;28;103489;-72
2023/05/28 08:01:18;;;;;;;;;0.67;0.67;;;;;19.01;40.28;98782.19;4818832;28;102187;-73
2023/05/28 08:03:50;;;;;;;;;2.67;1.33;;;;;19.60;41.84;98792.41;4819681;28;102971;-72
2023/05/28 08:06:18;;;;;;;;;1.00;1.00;;;;;19.27;40.60;98781.50;4820357;28;104217;-74
2023/05/28 08:08:45;;;;;;;;;2.00;2.00;;;;;19.26;41.02;98779.84;4819296;28;102173;-73
2023/05/28 08:11:13;;;;;;;;;0.00;0.00;;;;;19.17;40.83;98773.13;4822351;28;103098;-74
2023/05/28 08:13:41;;;;;;;;;2.00;1.67;;;;;19.52;40.41;98795.59;4819185;28;102325;-73
2023/05/28 08:16:11;;;;;;;;;1.67;1.67;;;;;19.26;40.98;98790.81;4817937;29;104013;-74
2023/05/28 08:18:41;;;;;;;;;1.33;1.00;;;;;19.43;43.57;98791.63;4820403;28;102012;-72
2023/05/28 08:21:09;;;;;;;;;0.67;0.67;;;;;19.40;39.47;98786.63;4819191;28;102384;-73
2023/05/28 08:23:36;;;;;;;;;0.67;0.67;;;;;19.76;39.22;98787.13;4817416;28;102298;-75
2023/05/28 08:26:03;;;;;;;;;2.00;2.00;;;;;19.58;40.15;98796.50;4814391;29;104150;-72
2023/05/28 08:28:31;;;;;;;;;1.00;1.00;;;;;19.61;38.51;98790.50;4824987;29;102342;-71
2023/05/28 08:30:58;;;;;;;;;2.00;2.00;;;;;19.54;37.58;98792.59;4824965;29;102570;-71
2023/05/28 08:33:26;;;;;;;;;1.00;1.00;;;;;19.90;38.87;98785.66;4823722;28;102109;-73
2023/05/28 08:35:53;;;;;;;;;1.00;0.33;;;;;20.29;39.68;98789.91;4822228;28;104039;-73
2023/05/28 08:38:21;;;;;;;;;1.00;1.00;;;;;20.47;37.00;98792.31;4820772;28;102061;-72
2023/05/28 08:40:54;;;;;;;;;1.00;0.00;;;;;20.84;36.17;98778.66;4822695;28;102070;-73
2023/05/28 08:43:22;;;;;;;;;0.67;0.67;;;;;21.01;35.97;98780.41;4823274;29;102407;-73
2023/05/28 08:45:52;;;;;;;;;1.00;1.00;;;;;20.87;35.88;98780.03;4821746;28;104044;-73
2023/05/28 08:48:21;;;;;;;;;1.00;1.00;;;;;21.03;38.51;98783.72;4794076;28;101892;-73
2023/05/28 08:50:51;;;;;;;;;0.67;0.00;;;;;21.07;35.48;98780.19;4814685;28;102140;-73
2023/05/28 08:53:23;;;;;;;;;0.00;0.00;;;;;21.13;36.64;98773.63;4821350;29;102367;-72
2023/05/28 08:55:53;;;;;;;;;0.33;0.33;;;;;20.71;34.61;98772.75;4816624;28;103962;-74
2023/05/28 08:58:21;;;;;;;;;0.00;0.00;;;;;20.76;33.58;98776.34;4819281;28;103047;-73
2023/05/28 09:00:48;;;;;;;;;1.00;1.00;;;;;20.84;37.35;98764.91;4818264;29;102009;-73
2023/05/28 09:03:15;;;;;;;;;0.33;0.00;;;;;20.88;40.90;98771.53;4818352;28;102023;-73
2023/05/28 09:05:42;;;;;;;;;1.00;1.00;;;;;20.49;37.62;98779.16;4821721;28;104511;-73
2023/05/28 09:08:10;;;;;;;;;1.00;1.00;;;;;20.32;36.99;98770.19;4821238;29;102077;-73
2023/05/28 09:10:39;;;;;;;;;1.00;1.00;;;;;20.84;35.85;98764.06;4820159;29;102858;-73
2023/05/28 09:13:06;;;;;;;;;1.00;1.00;;;;;21.08;36.10;98759.00;4822648;28;102229;-73
2023/05/28 09:15:35;;;;;;;;;1.00;1.00;;;;;20.78;36.70;98760.44;4819923;28;105612;-73
2023/05/28 09:18:05;;;;;;;;;1.33;1.33;;;;;20.92;36.29;98760.81;4818463;28;102228;-72
2023/05/28 09:20:33;;;;;;;;;2.00;1.00;;;;;20.79;39.22;98755.78;4821320;29;102167;-72
2023/05/28 09:23:06;;;;;;;;;1.00;1.00;;;;;20.59;39.28;98755.59;4825522;29;103459;-73
2023/05/28 09:25:36;;;;;;;;;2.00;0.67;;;;;20.66;36.26;98753.47;4819458;29;108732;-72
2023/05/28 09:28:03;;;;;;;;;2.00;2.00;;;;;21.04;39.06;98744.94;4818959;28;102888;-72
2023/05/28 09:30:35;;;;;;;;;1.00;1.00;;;;;20.62;37.46;98752.34;4821417;29;102297;-72
2023/05/28 09:33:04;;;;;;;;;1.00;1.00;;;;;20.46;38.05;98741.22;4819962;29;102067;-72
2023/05/28 09:35:32;;;;;;;;;1.00;1.00;;;;;20.83;38.92;98743.16;4817136;28;103868;-72
2023/05/28 09:38:11;;;;;;;;;6.00;2.00;;;;;20.47;38.11;98742.03;4821913;29;102755;-72
2023/05/28 09:40:39;;;;;;;;;1.33;1.00;;;;;20.78;37.75;98734.88;4817230;28;101994;-72
2023/05/28 09:43:08;;;;;;;;;0.00;0.00;;;;;21.20;38.61;98727.50;4819898;28;102278;-72
2023/05/28 09:45:35;;;;;;;;;1.00;1.00;;;;;21.17;36.30;98733.50;4819794;29;104049;-72
2023/05/28 09:48:03;;;;;;;;;1.00;1.00;;;;;21.24;37.19;98730.53;4821421;29;103427;-72
2023/05/28 09:50:30;;;;;;;;;1.33;1.33;;;;;20.92;37.79;98723.16;4823368;28;102327;-72
2023/05/28 09:52:59;;;;;;;;;1.00;1.00;;;;;21.27;36.30;98725.31;4819910;28;102453;-73
2023/05/28 09:55:28;;;;;;;;;0.00;0.00;;;;;21.32;34.24;98721.78;4818712;28;108807;-73
2023/05/28 09:58:04;;;;;;;;;0.00;0.00;;;;;21.44;35.68;98727.03;4816228;29;102455;-73
2023/05/28 10:00:38;;;;;;;;;0.00;0.00;;;;;21.62;36.41;98718.31;4819281;28;102455;-72
2023/05/28 10:03:11;;;;;;;;;2.00;1.00;;;;;20.94;37.99;98725.63;4823057;29;102700;-72
2023/05/28 10:05:42;;;;;;;;;1.00;1.00;;;;;21.35;36.61;98724.81;4820618;29;104050;-74
2023/05/28 10:08:13;;;;;;;;;0.00;0.00;;;;;21.45;34.57;98725.94;4821823;28;102189;-73
2023/05/28 10:10:42;;;;;;;;;0.00;0.00;;;;;21.55;37.19;98717.75;4822319;28;102299;-72
2023/05/28 10:13:11;;;;;;;;;1.00;0.00;;;;;21.76;36.45;98722.22;4819458;28;102240;-72
2023/05/28 10:15:39;;;;;;;;;0.00;0.00;;;;;21.84;36.59;98726.41;4820327;28;104255;-73
2023/05/28 10:18:07;;;;;;;;;1.00;1.00;;;;;21.92;35.20;98731.38;4820210;29;102172;-72
2023/05/28 10:20:34;;;;;;;;;0.00;0.00;;;;;21.70;36.17;98717.81;4819216;29;101853;-71
2023/05/28 10:23:01;;;;;;;;;1.33;1.33;;;;;21.30;34.79;98722.03;4821686;28;103867;-71
2023/05/28 10:25:29;;;;;;;;;0.33;0.00;;;;;21.47;35.70;98719.09;4820524;29;104065;-72
2023/05/28 10:27:59;;;;;;;;;0.67;0.67;;;;;21.54;34.58;98724.34;4818021;28;102335;-72
2023/05/28 10:30:37;;;;;;;;;1.67;1.00;;;;;21.56;35.04;98725.75;4820146;28;104083;-72
2023/05/28 10:33:24;;;;;;;;;0.00;0.00;;;;;21.72;37.56;98712.84;4780285;28;102308;-72
2023/05/28 10:35:53;;;;;;;;;0.00;0.00;;;;;21.82;36.99;98718.41;4781692;29;104345;-74
2023/05/28 10:38:22;;;;;;;;;0.00;0.00;;;;;21.77;36.76;98718.38;4785948;29;102125;-73
2023/05/28 10:40:49;;;;;;;;;0.00;0.00;;;;;21.87;36.74;98717.59;4783228;29;102364;-73
2023/05/28 10:43:37;;;;;;;;;0.67;0.67;;;;;21.56;36.67;98711.16;4787068;28;101987;-73
2023/05/28 10:46:19;;;;;;;;;0.67;0.67;;;;;21.84;34.84;98707.94;4783600;28;108529;-73
2023/05/28 10:49:08;;;;;;;;;0.67;0.67;;;;;21.81;39.18;98709.31;4783772;29;102220;-71
2023/05/28 10:51:54;;;;;;;;;0.00;0.00;;;;;22.15;35.43;98715.19;4780861;28;102145;-72
2023/05/28 10:54:24;;;;;;;;;2.00;2.00;;;;;21.82;37.34;98712.88;4782918;28;103933;-72
2023/05/28 10:57:11;;;;;;;;;1.33;1.33;;;;;21.79;36.08;98717.00;4786398;29;104241;-73
2023/05/28 10:59:51;;;;;;;;;1.00;1.00;;;;;;;;4787558;29;101824;-73
2023/05/28 11:02:25;;;;;;;;;2.00;1.67;;;;;21.90;34.91;98706.84;4786736;28;102528;-73
2023/05/28 11:05:01;;;;;;;;;0.00;0.00;;;;;21.90;36.50;98706.84;4789867;29;102067;-72
2023/05/28 11:07:32;;;;;;;;;1.00;1.00;;;;;21.49;36.37;98700.38;4788441;29;108883;-73
2023/05/28 11:10:00;;;;;;;;;1.00;1.00;;;;;21.88;36.75;98697.22;4787525;29;102164;-73
2023/05/28 11:12:28;;;;;;;;;1.33;1.00;;;;;21.82;36.64;98696.38;4785256;29;101986;-73
2023/05/28 11:14:55;;;;;;;;;0.33;0.00;;;;;22.00;36.75;98703.31;4788023;29;102206;-73
2023/05/28 11:17:23;;;;;;;;;0.67;0.67;;;;;21.72;36.38;98699.09;4785291;29;104194;-73
2023/05/28 11:19:51;;;;;;;;;2.33;1.00;;;;;21.86;37.99;98697.47;4786861;28;102871;-73
2023/05/28 11:22:20;;;;;;;;;2.67;1.00;;;;;21.51;36.21;98691.88;4785637;28;102419;-73
2023/05/28 11:24:59;;;;;;;;;1.00;1.00;;;;;21.31;37.65;98690.69;4801446;29;102065;-73
2023/05/28 11:27:27;;;;;;;;;1.67;1.00;;;;;21.38;39.39;98692.38;4785272;29;104072;-73
2023/05/28 11:29:57;;;;;;;;;1.00;1.00;;;;;21.41;35.82;98692.66;4787823;29;102007;-73
2023/05/28 11:32:25;;;;;;;;;2.00;2.00;;;;;21.25;36.76;98691.75;4800585;28;102367;-72
2023/05/28 11:34:55;;;;;;;;;2.67;2.00;;;;;21.15;36.08;98677.97;4805493;28;102170;-73
2023/05/28 11:37:25;;;;;;;;;2.00;2.00;;;;;20.98;35.32;98677.31;4805960;28;103978;-73